sensor_id;sensor_type;location;lat;lon;timestamp;temperature;humidity
60723;DHT22;46574;52.818;6.516;2023-12-20T00:00:26;6.00;99.90
60723;DHT22;46574;52.818;6.516;2023-12-20T00:02:51;6.00;99.90
60723;DHT22;46574;52.818;6.516;2023-12-20T00:05:17;6.00;99.90
60723;DHT22;46574;52.818;6.516;2023-12-20T00:07:42;6.00;99.90
60723;DHT22;46574;52.818;6.516;2023-12-20T00:10:08;5.90;99.90
60723;DHT22;46574;52.818;6.516;2023-12-20T00:12:34;5.90;99.90
60723;DHT22;46574;52.818;6.516;2023-12-20T00:15:00;6.00;99.90
60723;DHT22;46574;52.818;6.516;2023-12-20T00:17:26;6.00;99.90
60723;DHT22;46574;52.818;6.516;2023-12-20T00:19:52;6.00;99.90
60723;DHT22;46574;52.818;6.516;2023-12-20T00:22:17;5.90;99.90
60723;DHT22;46574;52.818;6.516;2023-12-20T00:24:43;5.90;99.90
60723;DHT22;46574;52.818;6.516;2023-12-20T00:27:09;5.90;99.90
60723;DHT22;46574;52.818;6.516;2023-12-20T00:29:34;5.90;99.90
60723;DHT22;46574;52.818;6.516;2023-12-20T00:32:00;5.90;99.90
60723;DHT22;46574;52.818;6.516;2023-12-20T00:34:25;5.80;99.90
60723;DHT22;46574;52.818;6.516;2023-12-20T00:36:51;5.90;99.90
60723;DHT22;46574;52.818;6.516;2023-12-20T00:39:17;5.90;99.90
60723;DHT22;46574;52.818;6.516;2023-12-20T00:41:42;5.90;99.90
60723;DHT22;46574;52.818;6.516;2023-12-20T00:44:08;5.90;99.90
60723;DHT22;46574;52.818;6.516;2023-12-20T00:46:34;5.90;99.90
60723;DHT22;46574;52.818;6.516;2023-12-20T00:48:59;5.80;99.90
60723;DHT22;46574;52.818;6.516;2023-12-20T00:51:25;5.80;99.90
60723;DHT22;46574;52.818;6.516;2023-12-20T00:53:51;5.80;99.90
60723;DHT22;46574;52.818;6.516;2023-12-20T00:56:20;5.80;99.90
60723;DHT22;46574;52.818;6.516;2023-12-20T00:58:47;5.80;99.90
60723;DHT22;46574;52.818;6.516;2023-12-20T01:01:13;5.80;99.90
60723;DHT22;46574;52.818;6.516;2023-12-20T01:03:38;5.90;99.90
60723;DHT22;46574;52.818;6.516;2023-12-20T01:06:04;5.90;99.90
60723;DHT22;46574;52.818;6.516;2023-12-20T01:08:30;5.90;99.90
60723;DHT22;46574;52.818;6.516;2023-12-20T01:10:56;5.90;99.90
60723;DHT22;46574;52.818;6.516;2023-12-20T01:13:22;5.90;99.90
60723;DHT22;46574;52.818;6.516;2023-12-20T01:15:47;5.90;99.90
60723;DHT22;46574;52.818;6.516;2023-12-20T01:18:14;5.90;99.90
60723;DHT22;46574;52.818;6.516;2023-12-20T01:20:40;5.90;99.90
60723;DHT22;46574;52.818;6.516;2023-12-20T01:23:06;5.90;99.90
60723;DHT22;46574;52.818;6.516;2023-12-20T01:25:31;5.90;99.90
60723;DHT22;46574;52.818;6.516;2023-12-20T01:27:57;5.90;99.90
60723;DHT22;46574;52.818;6.516;2023-12-20T01:30:23;6.00;99.90
60723;DHT22;46574;52.818;6.516;2023-12-20T01:32:49;6.00;99.90
60723;DHT22;46574;52.818;6.516;2023-12-20T01:35:15;6.00;99.90
60723;DHT22;46574;52.818;6.516;2023-12-20T01:37:40;6.00;99.90
60723;DHT22;46574;52.818;6.516;2023-12-20T01:40:06;6.00;99.90
60723;DHT22;46574;52.818;6.516;2023-12-20T01:42:33;6.00;99.90
60723;DHT22;46574;52.818;6.516;2023-12-20T01:45:00;6.00;99.90
60723;DHT22;46574;52.818;6.516;2023-12-20T01:47:25;6.00;99.90
60723;DHT22;46574;52.818;6.516;2023-12-20T01:49:52;6.10;99.90
60723;DHT22;46574;52.818;6.516;2023-12-20T01:52:19;6.00;99.90
60723;DHT22;46574;52.818;6.516;2023-12-20T01:54:45;6.10;99.90
60723;DHT22;46574;52.818;6.516;2023-12-20T01:57:12;6.10;99.90
60723;DHT22;46574;52.818;6.516;2023-12-20T01:59:39;6.20;99.90
60723;DHT22;46574;52.818;6.516;2023-12-20T02:02:05;6.20;99.90
60723;DHT22;46574;52.818;6.516;2023-12-20T02:04:32;6.20;99.90
60723;DHT22;46574;52.818;6.516;2023-12-20T02:06:59;6.30;99.90
60723;DHT22;46574;52.818;6.516;2023-12-20T02:09:24;6.30;99.90
60723;DHT22;46574;52.818;6.516;2023-12-20T02:11:50;6.30;99.90
60723;DHT22;46574;52.818;6.516;2023-12-20T02:14:16;6.30;99.90
60723;DHT22;46574;52.818;6.516;2023-12-20T02:16:41;6.30;99.90
60723;DHT22;46574;52.818;6.516;2023-12-20T02:19:13;6.30;99.90
60723;DHT22;46574;52.818;6.516;2023-12-20T02:21:40;6.20;99.90
60723;DHT22;46574;52.818;6.516;2023-12-20T02:24:06;6.30;99.90
60723;DHT22;46574;52.818;6.516;2023-12-20T02:26:34;6.20;99.90
60723;DHT22;46574;52.818;6.516;2023-12-20T02:29:00;6.30;99.90
60723;DHT22;46574;52.818;6.516;2023-12-20T02:31:26;6.20;99.90
60723;DHT22;46574;52.818;6.516;2023-12-20T02:33:52;6.20;99.90
60723;DHT22;46574;52.818;6.516;2023-12-20T02:36:18;6.20;99.90
60723;DHT22;46574;52.818;6.516;2023-12-20T02:38:43;6.20;99.90
60723;DHT22;46574;52.818;6.516;2023-12-20T02:41:09;6.30;99.90
60723;DHT22;46574;52.818;6.516;2023-12-20T02:43:35;6.30;99.90
60723;DHT22;46574;52.818;6.516;2023-12-20T02:46:00;6.30;99.90
60723;DHT22;46574;52.818;6.516;2023-12-20T02:48:26;6.40;99.90
60723;DHT22;46574;52.818;6.516;2023-12-20T02:50:51;6.40;99.90
60723;DHT22;46574;52.818;6.516;2023-12-20T02:53:17;6.40;99.90
60723;DHT22;46574;52.818;6.516;2023-12-20T02:55:43;6.50;99.90
60723;DHT22;46574;52.818;6.516;2023-12-20T02:58:09;6.50;99.90
60723;DHT22;46574;52.818;6.516;2023-12-20T03:00:34;6.50;99.90
60723;DHT22;46574;52.818;6.516;2023-12-20T03:03:00;6.50;99.90
60723;DHT22;46574;52.818;6.516;2023-12-20T03:05:25;6.50;99.90
60723;DHT22;46574;52.818;6.516;2023-12-20T03:07:51;6.60;99.90
60723;DHT22;46574;52.818;6.516;2023-12-20T03:10:18;6.60;99.90
60723;DHT22;46574;52.818;6.516;2023-12-20T03:12:44;6.60;99.90
60723;DHT22;46574;52.818;6.516;2023-12-20T03:15:10;6.70;99.90
60723;DHT22;46574;52.818;6.516;2023-12-20T03:17:36;6.60;99.90
60723;DHT22;46574;52.818;6.516;2023-12-20T03:20:02;6.60;99.90
60723;DHT22;46574;52.818;6.516;2023-12-20T03:22:28;6.60;99.90
60723;DHT22;46574;52.818;6.516;2023-12-20T03:24:53;6.60;99.90
60723;DHT22;46574;52.818;6.516;2023-12-20T03:27:19;6.50;99.90
60723;DHT22;46574;52.818;6.516;2023-12-20T03:29:44;6.50;99.90
60723;DHT22;46574;52.818;6.516;2023-12-20T03:32:10;6.50;99.90
60723;DHT22;46574;52.818;6.516;2023-12-20T03:34:36;6.50;99.90
60723;DHT22;46574;52.818;6.516;2023-12-20T03:37:03;6.50;99.90
60723;DHT22;46574;52.818;6.516;2023-12-20T03:39:28;6.50;99.90
60723;DHT22;46574;52.818;6.516;2023-12-20T03:41:54;6.50;99.90
60723;DHT22;46574;52.818;6.516;2023-12-20T03:44:19;6.50;99.90
60723;DHT22;46574;52.818;6.516;2023-12-20T03:46:45;6.50;99.90
60723;DHT22;46574;52.818;6.516;2023-12-20T03:49:11;6.50;99.90
60723;DHT22;46574;52.818;6.516;2023-12-20T03:51:37;6.40;99.90
60723;DHT22;46574;52.818;6.516;2023-12-20T03:54:03;6.40;99.90
60723;DHT22;46574;52.818;6.516;2023-12-20T03:56:28;6.50;99.90
60723;DHT22;46574;52.818;6.516;2023-12-20T03:58:54;6.50;99.90
60723;DHT22;46574;52.818;6.516;2023-12-20T04:01:20;6.60;99.90
60723;DHT22;46574;52.818;6.516;2023-12-20T04:03:45;6.60;99.90
60723;DHT22;46574;52.818;6.516;2023-12-20T04:06:17;6.60;99.90
60723;DHT22;46574;52.818;6.516;2023-12-20T04:08:43;6.60;99.90
60723;DHT22;46574;52.818;6.516;2023-12-20T04:11:08;6.60;99.90
60723;DHT22;46574;52.818;6.516;2023-12-20T04:13:34;6.60;99.90
60723;DHT22;46574;52.818;6.516;2023-12-20T04:15:59;6.70;99.90
60723;DHT22;46574;52.818;6.516;2023-12-20T04:18:25;6.70;99.90
60723;DHT22;46574;52.818;6.516;2023-12-20T04:20:51;6.70;99.90
60723;DHT22;46574;52.818;6.516;2023-12-20T04:23:17;6.70;99.90
60723;DHT22;46574;52.818;6.516;2023-12-20T04:25:42;6.70;99.90
60723;DHT22;46574;52.818;6.516;2023-12-20T04:28:08;6.70;99.90
60723;DHT22;46574;52.818;6.516;2023-12-20T04:30:34;6.70;99.90
60723;DHT22;46574;52.818;6.516;2023-12-20T04:32:59;6.70;99.90
60723;DHT22;46574;52.818;6.516;2023-12-20T04:35:25;6.70;99.90
60723;DHT22;46574;52.818;6.516;2023-12-20T04:37:51;6.80;99.90
60723;DHT22;46574;52.818;6.516;2023-12-20T04:40:17;6.80;99.90
60723;DHT22;46574;52.818;6.516;2023-12-20T04:42:42;6.80;99.90
60723;DHT22;46574;52.818;6.516;2023-12-20T04:45:08;6.90;99.90
60723;DHT22;46574;52.818;6.516;2023-12-20T04:47:34;6.90;99.90
60723;DHT22;46574;52.818;6.516;2023-12-20T04:50:00;6.90;99.90
60723;DHT22;46574;52.818;6.516;2023-12-20T04:52:25;6.90;99.90
60723;DHT22;46574;52.818;6.516;2023-12-20T04:54:51;6.90;99.90
60723;DHT22;46574;52.818;6.516;2023-12-20T04:57:17;6.90;99.90
60723;DHT22;46574;52.818;6.516;2023-12-20T04:59:42;7.00;99.90
60723;DHT22;46574;52.818;6.516;2023-12-20T05:02:08;7.00;99.90
60723;DHT22;46574;52.818;6.516;2023-12-20T05:04:34;7.00;99.90
60723;DHT22;46574;52.818;6.516;2023-12-20T05:07:00;7.00;99.90
60723;DHT22;46574;52.818;6.516;2023-12-20T05:09:25;7.00;99.90
60723;DHT22;46574;52.818;6.516;2023-12-20T05:11:51;7.00;99.90
60723;DHT22;46574;52.818;6.516;2023-12-20T05:14:17;7.00;99.90
60723;DHT22;46574;52.818;6.516;2023-12-20T05:16:42;7.10;99.90
60723;DHT22;46574;52.818;6.516;2023-12-20T05:19:08;7.10;99.90
60723;DHT22;46574;52.818;6.516;2023-12-20T05:21:33;7.10;99.90
60723;DHT22;46574;52.818;6.516;2023-12-20T05:23:59;7.10;99.90
60723;DHT22;46574;52.818;6.516;2023-12-20T05:26:26;7.10;99.90
60723;DHT22;46574;52.818;6.516;2023-12-20T05:28:51;7.20;99.90
60723;DHT22;46574;52.818;6.516;2023-12-20T05:31:18;7.20;99.90
60723;DHT22;46574;52.818;6.516;2023-12-20T05:33:43;7.20;99.90
60723;DHT22;46574;52.818;6.516;2023-12-20T05:36:09;7.20;99.90
60723;DHT22;46574;52.818;6.516;2023-12-20T05:38:37;7.30;99.90
60723;DHT22;46574;52.818;6.516;2023-12-20T05:41:02;7.30;99.90
60723;DHT22;46574;52.818;6.516;2023-12-20T05:43:29;7.30;99.90
60723;DHT22;46574;52.818;6.516;2023-12-20T05:45:54;7.30;99.90
60723;DHT22;46574;52.818;6.516;2023-12-20T05:48:20;7.40;99.90
60723;DHT22;46574;52.818;6.516;2023-12-20T05:50:46;7.40;99.90
60723;DHT22;46574;52.818;6.516;2023-12-20T05:53:11;7.40;99.90
60723;DHT22;46574;52.818;6.516;2023-12-20T05:55:37;7.40;99.90
60723;DHT22;46574;52.818;6.516;2023-12-20T05:58:03;7.40;99.90
60723;DHT22;46574;52.818;6.516;2023-12-20T06:00:28;7.50;99.90
60723;DHT22;46574;52.818;6.516;2023-12-20T06:02:54;7.50;99.90
60723;DHT22;46574;52.818;6.516;2023-12-20T06:05:20;7.50;99.90
60723;DHT22;46574;52.818;6.516;2023-12-20T06:07:45;7.50;99.90
60723;DHT22;46574;52.818;6.516;2023-12-20T06:10:13;7.50;99.90
60723;DHT22;46574;52.818;6.516;2023-12-20T06:12:39;7.50;99.90
60723;DHT22;46574;52.818;6.516;2023-12-20T06:15:06;7.50;99.90
60723;DHT22;46574;52.818;6.516;2023-12-20T06:17:32;7.50;99.90
60723;DHT22;46574;52.818;6.516;2023-12-20T06:19:57;7.50;99.90
60723;DHT22;46574;52.818;6.516;2023-12-20T06:22:23;7.50;99.90
60723;DHT22;46574;52.818;6.516;2023-12-20T06:24:49;7.50;99.90
60723;DHT22;46574;52.818;6.516;2023-12-20T06:27:14;7.50;99.90
60723;DHT22;46574;52.818;6.516;2023-12-20T06:29:40;7.50;99.90
60723;DHT22;46574;52.818;6.516;2023-12-20T06:32:06;7.60;99.90
60723;DHT22;46574;52.818;6.516;2023-12-20T06:34:32;7.60;99.90
60723;DHT22;46574;52.818;6.516;2023-12-20T06:36:58;7.60;99.90
60723;DHT22;46574;52.818;6.516;2023-12-20T06:39:23;7.60;99.90
60723;DHT22;46574;52.818;6.516;2023-12-20T06:41:49;7.60;99.90
60723;DHT22;46574;52.818;6.516;2023-12-20T06:44:15;7.60;99.90
60723;DHT22;46574;52.818;6.516;2023-12-20T06:46:40;7.60;99.90
60723;DHT22;46574;52.818;6.516;2023-12-20T06:49:06;7.60;99.90
60723;DHT22;46574;52.818;6.516;2023-12-20T06:51:32;7.70;99.90
60723;DHT22;46574;52.818;6.516;2023-12-20T06:53:58;7.60;99.90
60723;DHT22;46574;52.818;6.516;2023-12-20T06:56:24;7.60;99.90
60723;DHT22;46574;52.818;6.516;2023-12-20T06:58:49;7.70;99.90
60723;DHT22;46574;52.818;6.516;2023-12-20T07:01:15;7.70;99.90
60723;DHT22;46574;52.818;6.516;2023-12-20T07:03:42;7.70;99.90
60723;DHT22;46574;52.818;6.516;2023-12-20T07:06:08;7.70;99.90
60723;DHT22;46574;52.818;6.516;2023-12-20T07:08:34;7.70;99.90
60723;DHT22;46574;52.818;6.516;2023-12-20T07:10:59;7.70;99.90
60723;DHT22;46574;52.818;6.516;2023-12-20T07:13:25;7.70;99.90
60723;DHT22;46574;52.818;6.516;2023-12-20T07:15:51;7.70;99.90
60723;DHT22;46574;52.818;6.516;2023-12-20T07:18:16;7.70;99.90
60723;DHT22;46574;52.818;6.516;2023-12-20T07:20:42;7.70;99.90
60723;DHT22;46574;52.818;6.516;2023-12-20T07:23:08;7.70;99.90
60723;DHT22;46574;52.818;6.516;2023-12-20T07:25:34;7.80;99.90
60723;DHT22;46574;52.818;6.516;2023-12-20T07:28:00;7.80;99.90
60723;DHT22;46574;52.818;6.516;2023-12-20T07:30:25;7.80;99.90
60723;DHT22;46574;52.818;6.516;2023-12-20T07:32:51;7.80;99.90
60723;DHT22;46574;52.818;6.516;2023-12-20T07:35:18;7.80;99.90
60723;DHT22;46574;52.818;6.516;2023-12-20T07:37:43;7.80;99.90
60723;DHT22;46574;52.818;6.516;2023-12-20T07:40:10;7.80;99.90
60723;DHT22;46574;52.818;6.516;2023-12-20T07:42:35;7.90;99.90
60723;DHT22;46574;52.818;6.516;2023-12-20T07:45:01;7.80;99.90
60723;DHT22;46574;52.818;6.516;2023-12-20T07:47:27;7.90;99.90
60723;DHT22;46574;52.818;6.516;2023-12-20T07:49:52;7.90;99.90
60723;DHT22;46574;52.818;6.516;2023-12-20T07:52:18;7.90;99.90
60723;DHT22;46574;52.818;6.516;2023-12-20T07:54:45;8.00;99.90
60723;DHT22;46574;52.818;6.516;2023-12-20T07:57:11;8.00;99.90
60723;DHT22;46574;52.818;6.516;2023-12-20T07:59:36;8.00;99.90
60723;DHT22;46574;52.818;6.516;2023-12-20T08:02:02;8.10;99.90
60723;DHT22;46574;52.818;6.516;2023-12-20T08:04:28;8.10;99.90
60723;DHT22;46574;52.818;6.516;2023-12-20T08:06:53;8.10;99.90
60723;DHT22;46574;52.818;6.516;2023-12-20T08:09:19;8.10;99.90
60723;DHT22;46574;52.818;6.516;2023-12-20T08:11:46;8.10;99.90
60723;DHT22;46574;52.818;6.516;2023-12-20T08:14:11;8.20;99.90
60723;DHT22;46574;52.818;6.516;2023-12-20T08:16:37;8.20;99.90
60723;DHT22;46574;52.818;6.516;2023-12-20T08:19:03;8.20;99.90
60723;DHT22;46574;52.818;6.516;2023-12-20T08:21:28;8.20;99.90
60723;DHT22;46574;52.818;6.516;2023-12-20T08:23:55;8.20;99.90
60723;DHT22;46574;52.818;6.516;2023-12-20T08:26:20;8.30;99.90
60723;DHT22;46574;52.818;6.516;2023-12-20T08:28:48;8.30;99.90
60723;DHT22;46574;52.818;6.516;2023-12-20T08:31:15;8.30;99.90
60723;DHT22;46574;52.818;6.516;2023-12-20T08:33:45;8.30;99.90
60723;DHT22;46574;52.818;6.516;2023-12-20T08:36:11;8.30;99.90
60723;DHT22;46574;52.818;6.516;2023-12-20T08:38:37;8.40;99.90
60723;DHT22;46574;52.818;6.516;2023-12-20T08:41:03;8.40;99.90
60723;DHT22;46574;52.818;6.516;2023-12-20T08:43:39;8.40;99.90
60723;DHT22;46574;52.818;6.516;2023-12-20T08:46:08;8.40;99.90
60723;DHT22;46574;52.818;6.516;2023-12-20T08:48:35;8.40;99.90
60723;DHT22;46574;52.818;6.516;2023-12-20T08:51:01;8.40;99.90
60723;DHT22;46574;52.818;6.516;2023-12-20T08:53:26;8.50;99.90
60723;DHT22;46574;52.818;6.516;2023-12-20T08:55:52;8.50;99.90
60723;DHT22;46574;52.818;6.516;2023-12-20T08:58:18;8.50;99.90
60723;DHT22;46574;52.818;6.516;2023-12-20T09:00:43;8.50;99.90
60723;DHT22;46574;52.818;6.516;2023-12-20T09:03:09;8.60;99.90
60723;DHT22;46574;52.818;6.516;2023-12-20T09:05:34;8.60;99.90
60723;DHT22;46574;52.818;6.516;2023-12-20T09:08:00;8.60;99.90
60723;DHT22;46574;52.818;6.516;2023-12-20T09:10:26;8.60;99.90
60723;DHT22;46574;52.818;6.516;2023-12-20T09:12:52;8.60;99.90
60723;DHT22;46574;52.818;6.516;2023-12-20T09:15:26;8.60;99.90
60723;DHT22;46574;52.818;6.516;2023-12-20T09:17:52;8.60;99.90
60723;DHT22;46574;52.818;6.516;2023-12-20T09:20:17;8.60;99.90
60723;DHT22;46574;52.818;6.516;2023-12-20T09:22:43;8.60;99.90
60723;DHT22;46574;52.818;6.516;2023-12-20T09:25:12;8.60;99.90
60723;DHT22;46574;52.818;6.516;2023-12-20T09:27:39;8.60;99.90
60723;DHT22;46574;52.818;6.516;2023-12-20T09:30:05;8.60;99.90
60723;DHT22;46574;52.818;6.516;2023-12-20T09:32:31;8.60;99.90
60723;DHT22;46574;52.818;6.516;2023-12-20T09:34:57;8.70;99.90
60723;DHT22;46574;52.818;6.516;2023-12-20T09:37:26;8.70;99.90
60723;DHT22;46574;52.818;6.516;2023-12-20T09:39:51;8.80;99.90
60723;DHT22;46574;52.818;6.516;2023-12-20T09:42:31;8.80;99.90
60723;DHT22;46574;52.818;6.516;2023-12-20T09:45:04;8.70;99.90
60723;DHT22;46574;52.818;6.516;2023-12-20T09:47:33;8.80;99.90
60723;DHT22;46574;52.818;6.516;2023-12-20T09:49:58;8.70;99.90
60723;DHT22;46574;52.818;6.516;2023-12-20T09:52:24;8.50;99.90
60723;DHT22;46574;52.818;6.516;2023-12-20T09:54:52;7.40;99.90
60723;DHT22;46574;52.818;6.516;2023-12-20T09:57:18;6.40;99.90
60723;DHT22;46574;52.818;6.516;2023-12-20T09:59:44;6.30;99.90
60723;DHT22;46574;52.818;6.516;2023-12-20T10:02:13;6.40;99.90
60723;DHT22;46574;52.818;6.516;2023-12-20T10:04:48;6.40;99.90
60723;DHT22;46574;52.818;6.516;2023-12-20T10:07:14;6.50;99.90
60723;DHT22;46574;52.818;6.516;2023-12-20T10:09:41;6.40;99.90
60723;DHT22;46574;52.818;6.516;2023-12-20T10:12:07;6.40;99.90
60723;DHT22;46574;52.818;6.516;2023-12-20T10:14:33;6.40;99.90
60723;DHT22;46574;52.818;6.516;2023-12-20T10:17:03;6.40;99.90
60723;DHT22;46574;52.818;6.516;2023-12-20T10:19:29;6.40;99.90
60723;DHT22;46574;52.818;6.516;2023-12-20T10:21:55;6.40;99.90
60723;DHT22;46574;52.818;6.516;2023-12-20T10:24:21;6.40;99.90
60723;DHT22;46574;52.818;6.516;2023-12-20T10:26:46;6.40;99.90
60723;DHT22;46574;52.818;6.516;2023-12-20T10:29:12;6.40;99.90
60723;DHT22;46574;52.818;6.516;2023-12-20T10:31:38;6.40;99.90
60723;DHT22;46574;52.818;6.516;2023-12-20T10:34:07;6.40;99.90
60723;DHT22;46574;52.818;6.516;2023-12-20T10:36:33;6.40;99.90
60723;DHT22;46574;52.818;6.516;2023-12-20T10:39:00;6.50;99.90
60723;DHT22;46574;52.818;6.516;2023-12-20T10:41:31;6.50;99.90
60723;DHT22;46574;52.818;6.516;2023-12-20T10:44:00;6.50;99.90
60723;DHT22;46574;52.818;6.516;2023-12-20T10:46:29;6.50;99.90
60723;DHT22;46574;52.818;6.516;2023-12-20T10:48:56;6.60;99.90
60723;DHT22;46574;52.818;6.516;2023-12-20T10:51:23;6.60;99.90
60723;DHT22;46574;52.818;6.516;2023-12-20T10:53:50;6.70;99.90
60723;DHT22;46574;52.818;6.516;2023-12-20T10:56:19;6.80;99.90
60723;DHT22;46574;52.818;6.516;2023-12-20T10:58:45;6.80;99.90
60723;DHT22;46574;52.818;6.516;2023-12-20T11:01:13;6.80;99.90
60723;DHT22;46574;52.818;6.516;2023-12-20T11:03:50;6.80;99.90
60723;DHT22;46574;52.818;6.516;2023-12-20T11:09:20;6.80;99.90
60723;DHT22;46574;52.818;6.516;2023-12-20T11:12:05;6.90;99.90
60723;DHT22;46574;52.818;6.516;2023-12-20T11:17:13;7.00;99.90
60723;DHT22;46574;52.818;6.516;2023-12-20T11:22:22;7.00;99.90
60723;DHT22;46574;52.818;6.516;2023-12-20T11:24:49;7.10;99.90
60723;DHT22;46574;52.818;6.516;2023-12-20T11:27:15;7.20;99.90
60723;DHT22;46574;52.818;6.516;2023-12-20T11:29:41;7.20;99.90
60723;DHT22;46574;52.818;6.516;2023-12-20T11:34:57;7.30;99.90
60723;DHT22;46574;52.818;6.516;2023-12-20T11:37:29;7.30;99.90
60723;DHT22;46574;52.818;6.516;2023-12-20T11:40:07;7.30;99.90
60723;DHT22;46574;52.818;6.516;2023-12-20T11:42:39;7.30;99.90
60723;DHT22;46574;52.818;6.516;2023-12-20T11:45:07;7.30;99.90
60723;DHT22;46574;52.818;6.516;2023-12-20T11:47:33;7.30;99.90
60723;DHT22;46574;52.818;6.516;2023-12-20T11:50:00;7.30;99.90
60723;DHT22;46574;52.818;6.516;2023-12-20T11:52:29;7.30;99.90
60723;DHT22;46574;52.818;6.516;2023-12-20T11:54:55;7.30;99.90
60723;DHT22;46574;52.818;6.516;2023-12-20T11:57:20;7.30;99.90
60723;DHT22;46574;52.818;6.516;2023-12-20T11:59:46;7.40;99.90
60723;DHT22;46574;52.818;6.516;2023-12-20T12:02:12;7.30;99.90
60723;DHT22;46574;52.818;6.516;2023-12-20T12:04:38;7.40;99.90
60723;DHT22;46574;52.818;6.516;2023-12-20T12:07:04;7.40;99.90
60723;DHT22;46574;52.818;6.516;2023-12-20T12:09:29;7.40;99.90
60723;DHT22;46574;52.818;6.516;2023-12-20T12:11:55;7.40;99.90
60723;DHT22;46574;52.818;6.516;2023-12-20T12:14:21;7.40;99.90
60723;DHT22;46574;52.818;6.516;2023-12-20T12:16:46;7.50;99.90
60723;DHT22;46574;52.818;6.516;2023-12-20T12:19:22;7.50;99.90
60723;DHT22;46574;52.818;6.516;2023-12-20T12:21:49;7.50;99.90
60723;DHT22;46574;52.818;6.516;2023-12-20T12:24:15;7.50;99.90
60723;DHT22;46574;52.818;6.516;2023-12-20T12:26:40;7.50;99.90
60723;DHT22;46574;52.818;6.516;2023-12-20T12:29:09;7.40;99.90
60723;DHT22;46574;52.818;6.516;2023-12-20T12:31:35;7.40;99.90
60723;DHT22;46574;52.818;6.516;2023-12-20T12:34:01;7.40;99.90
60723;DHT22;46574;52.818;6.516;2023-12-20T12:36:28;7.40;99.90
60723;DHT22;46574;52.818;6.516;2023-12-20T12:38:56;7.40;99.90
60723;DHT22;46574;52.818;6.516;2023-12-20T12:41:23;7.50;99.90
60723;DHT22;46574;52.818;6.516;2023-12-20T12:43:48;7.40;99.90
60723;DHT22;46574;52.818;6.516;2023-12-20T12:46:14;7.40;99.90
60723;DHT22;46574;52.818;6.516;2023-12-20T12:48:40;7.30;99.90
60723;DHT22;46574;52.818;6.516;2023-12-20T12:51:05;7.30;99.90
60723;DHT22;46574;52.818;6.516;2023-12-20T12:53:32;7.30;99.90
60723;DHT22;46574;52.818;6.516;2023-12-20T12:55:58;7.20;99.90
60723;DHT22;46574;52.818;6.516;2023-12-20T12:58:23;7.10;99.90
60723;DHT22;46574;52.818;6.516;2023-12-20T13:00:50;7.10;99.90
60723;DHT22;46574;52.818;6.516;2023-12-20T13:03:16;7.00;99.90
60723;DHT22;46574;52.818;6.516;2023-12-20T13:05:42;7.00;99.90
60723;DHT22;46574;52.818;6.516;2023-12-20T13:08:07;7.00;99.90
60723;DHT22;46574;52.818;6.516;2023-12-20T13:10:34;7.00;99.90
60723;DHT22;46574;52.818;6.516;2023-12-20T13:13:00;6.90;99.90
60723;DHT22;46574;52.818;6.516;2023-12-20T13:15:26;6.90;99.90
60723;DHT22;46574;52.818;6.516;2023-12-20T13:17:51;6.90;99.90
60723;DHT22;46574;52.818;6.516;2023-12-20T13:20:17;6.80;99.90
60723;DHT22;46574;52.818;6.516;2023-12-20T13:22:43;6.80;99.90
60723;DHT22;46574;52.818;6.516;2023-12-20T13:25:08;6.80;99.90
60723;DHT22;46574;52.818;6.516;2023-12-20T13:27:34;6.80;99.90
60723;DHT22;46574;52.818;6.516;2023-12-20T13:30:00;6.80;99.90
60723;DHT22;46574;52.818;6.516;2023-12-20T13:32:25;6.70;99.90
60723;DHT22;46574;52.818;6.516;2023-12-20T13:34:51;6.80;99.90
60723;DHT22;46574;52.818;6.516;2023-12-20T13:37:16;6.80;99.90
60723;DHT22;46574;52.818;6.516;2023-12-20T13:39:42;6.80;99.90
60723;DHT22;46574;52.818;6.516;2023-12-20T13:42:08;6.80;99.90
60723;DHT22;46574;52.818;6.516;2023-12-20T13:44:33;6.70;99.90
60723;DHT22;46574;52.818;6.516;2023-12-20T13:46:59;6.70;99.90
60723;DHT22;46574;52.818;6.516;2023-12-20T13:49:25;6.80;99.90
60723;DHT22;46574;52.818;6.516;2023-12-20T13:51:51;6.70;99.90
60723;DHT22;46574;52.818;6.516;2023-12-20T13:54:16;6.70;99.90
60723;DHT22;46574;52.818;6.516;2023-12-20T13:56:45;6.70;99.90
60723;DHT22;46574;52.818;6.516;2023-12-20T13:59:11;6.70;99.90
60723;DHT22;46574;52.818;6.516;2023-12-20T14:01:38;6.70;99.90
60723;DHT22;46574;52.818;6.516;2023-12-20T14:04:03;6.70;99.90
60723;DHT22;46574;52.818;6.516;2023-12-20T14:06:29;6.70;99.90
60723;DHT22;46574;52.818;6.516;2023-12-20T14:08:55;6.70;99.90
60723;DHT22;46574;52.818;6.516;2023-12-20T14:11:21;6.70;99.90
60723;DHT22;46574;52.818;6.516;2023-12-20T14:13:46;6.70;99.90
60723;DHT22;46574;52.818;6.516;2023-12-20T14:16:12;6.70;99.90
60723;DHT22;46574;52.818;6.516;2023-12-20T14:18:38;6.70;99.90
60723;DHT22;46574;52.818;6.516;2023-12-20T14:21:05;6.70;99.90
60723;DHT22;46574;52.818;6.516;2023-12-20T14:23:32;6.70;99.90
60723;DHT22;46574;52.818;6.516;2023-12-20T14:25:59;6.70;99.90
60723;DHT22;46574;52.818;6.516;2023-12-20T14:28:25;6.70;99.90
60723;DHT22;46574;52.818;6.516;2023-12-20T14:30:51;6.80;99.90
60723;DHT22;46574;52.818;6.516;2023-12-20T14:33:16;6.70;99.90
60723;DHT22;46574;52.818;6.516;2023-12-20T14:35:42;6.70;99.90
60723;DHT22;46574;52.818;6.516;2023-12-20T14:38:09;6.70;99.90
60723;DHT22;46574;52.818;6.516;2023-12-20T14:40:35;6.80;99.90
60723;DHT22;46574;52.818;6.516;2023-12-20T14:43:01;6.80;99.90
60723;DHT22;46574;52.818;6.516;2023-12-20T14:45:29;6.80;99.90
60723;DHT22;46574;52.818;6.516;2023-12-20T14:47:55;6.80;99.90
60723;DHT22;46574;52.818;6.516;2023-12-20T14:50:21;6.80;99.90
60723;DHT22;46574;52.818;6.516;2023-12-20T14:52:47;6.80;99.90
60723;DHT22;46574;52.818;6.516;2023-12-20T14:55:13;6.80;99.90
60723;DHT22;46574;52.818;6.516;2023-12-20T14:57:38;6.80;99.90
60723;DHT22;46574;52.818;6.516;2023-12-20T15:00:05;6.80;99.90
60723;DHT22;46574;52.818;6.516;2023-12-20T15:02:31;6.90;99.90
60723;DHT22;46574;52.818;6.516;2023-12-20T15:04:57;6.90;99.90
60723;DHT22;46574;52.818;6.516;2023-12-20T15:07:22;6.90;99.90
60723;DHT22;46574;52.818;6.516;2023-12-20T15:09:48;6.90;99.90
60723;DHT22;46574;52.818;6.516;2023-12-20T15:12:14;6.90;99.90
60723;DHT22;46574;52.818;6.516;2023-12-20T15:14:40;6.90;99.90
60723;DHT22;46574;52.818;6.516;2023-12-20T15:17:06;7.00;99.90
60723;DHT22;46574;52.818;6.516;2023-12-20T15:19:31;6.90;99.90
60723;DHT22;46574;52.818;6.516;2023-12-20T15:21:57;7.00;99.90
60723;DHT22;46574;52.818;6.516;2023-12-20T15:24:25;7.10;99.90
60723;DHT22;46574;52.818;6.516;2023-12-20T15:26:54;7.20;99.90
60723;DHT22;46574;52.818;6.516;2023-12-20T15:29:20;7.20;99.90
60723;DHT22;46574;52.818;6.516;2023-12-20T15:31:46;7.30;99.90
60723;DHT22;46574;52.818;6.516;2023-12-20T15:34:14;7.40;99.90
60723;DHT22;46574;52.818;6.516;2023-12-20T15:36:40;7.50;99.90
60723;DHT22;46574;52.818;6.516;2023-12-20T15:39:06;7.50;99.90
60723;DHT22;46574;52.818;6.516;2023-12-20T15:41:34;7.50;99.90
60723;DHT22;46574;52.818;6.516;2023-12-20T15:43:59;7.60;99.90
60723;DHT22;46574;52.818;6.516;2023-12-20T15:46:25;7.60;99.90
60723;DHT22;46574;52.818;6.516;2023-12-20T15:48:51;7.60;99.90